createdAt,value
2022-09-13T00:02:25.668Z,100701.25
2022-09-13T00:04:53.072Z,100687.84
2022-09-13T00:07:20.451Z,100696.88
2022-09-13T00:09:47.838Z,100686.16
2022-09-13T00:12:16.537Z,100689.34
2022-09-13T00:14:43.932Z,100679.53
2022-09-13T00:17:11.316Z,100674.31
2022-09-13T00:19:38.709Z,100683.16
2022-09-13T00:22:06.407Z,100684.91
2022-09-13T00:24:34.345Z,100676.88
2022-09-13T00:27:01.715Z,100668.09
2022-09-13T00:29:30.410Z,100653.06
2022-09-13T00:31:58.074Z,100653.88
2022-09-13T00:34:25.489Z,100659.41
2022-09-13T00:36:52.867Z,100654.03
2022-09-13T00:39:20.384Z,100647.88
2022-09-13T00:41:47.832Z,100649.34
2022-09-13T00:44:56.050Z,100643.34
2022-09-13T00:47:24.993Z,100633.66
2022-09-13T00:49:53.233Z,100626.59
2022-09-13T00:52:21.460Z,100614.22
2022-09-13T00:54:53.695Z,100612.41
2022-09-13T00:57:21.082Z,100610.72
2022-09-13T00:59:49.682Z,100602.50
2022-09-13T01:02:18.385Z,100605.88
2022-09-13T01:04:45.824Z,100597.84
2022-09-13T01:07:14.086Z,100591.81
2022-09-13T01:09:44.090Z,100592.63
2022-09-13T01:12:16.030Z,100587.97
2022-09-13T01:14:43.404Z,100585.63
2022-09-13T01:17:10.785Z,100584.78
2022-09-13T01:19:39.472Z,100583.94
2022-09-13T01:22:26.046Z,100591.16
2022-09-13T01:25:28.839Z,100576.91
2022-09-13T01:28:07.385Z,100580.28
2022-09-13T01:30:36.231Z,100566.19
2022-09-13T01:33:40.093Z,100576.75
2022-09-13T01:36:16.487Z,100579.41
2022-09-13T01:38:50.957Z,100570.72
2022-09-13T01:41:25.082Z,100576.91
2022-09-13T01:43:55.145Z,100590.97
2022-09-13T01:46:25.806Z,100579.41
2022-09-13T01:48:56.408Z,100569.88
2022-09-13T01:51:27.367Z,100560.00
2022-09-13T01:53:59.518Z,100563.72
2022-09-13T01:56:28.990Z,100556.66
2022-09-13T01:58:57.563Z,100552.31
2022-09-13T02:01:27.270Z,100552.16
2022-09-13T02:03:56.532Z,100544.28
2022-09-13T02:06:25.488Z,100540.94
2022-09-13T02:08:54.455Z,100538.09
2022-09-13T02:11:22.386Z,100537.28
2022-09-13T02:13:51.470Z,100534.59
2022-09-13T02:16:20.569Z,100530.22
2022-09-13T02:18:50.865Z,100528.22
2022-09-13T02:21:27.557Z,100529.91
2022-09-13T02:23:55.521Z,100528.22
2022-09-13T02:26:23.091Z,100525.53
2022-09-13T02:28:52.357Z,100517.00
2022-09-13T02:31:20.522Z,100522.19
2022-09-13T02:33:50.410Z,100522.34
2022-09-13T02:36:19.984Z,100514.34
2022-09-13T02:38:48.263Z,100508.00
2022-09-13T02:41:18.166Z,100510.81
2022-09-13T02:43:48.200Z,100498.44
2022-09-13T02:46:21.788Z,100496.63
2022-09-13T02:48:58.147Z,100494.78
2022-09-13T02:51:30.032Z,100493.09
2022-09-13T02:54:03.889Z,100491.44
2022-09-13T02:56:34.038Z,100480.72
2022-09-13T02:59:03.408Z,100482.56
2022-09-13T03:01:30.969Z,100482.38
2022-09-13T03:03:59.918Z,100476.19
2022-09-13T03:06:28.545Z,100482.38
2022-09-13T03:08:56.127Z,100474.19
2022-09-13T03:11:33.756Z,100468.00
2022-09-13T03:14:09.283Z,100462.66
2022-09-13T03:16:44.427Z,100458.13
2022-09-13T03:19:35.032Z,100451.28
2022-09-13T03:22:17.815Z,100440.41
2022-09-13T03:24:50.636Z,100428.19
2022-09-13T03:27:20.410Z,100427.22
2022-09-13T03:29:52.067Z,100422.69
2022-09-13T03:32:24.165Z,100426.38
2022-09-13T03:34:55.302Z,100427.22
2022-09-13T03:37:25.753Z,100427.22
2022-09-13T03:39:55.056Z,100421.84
2022-09-13T03:42:24.715Z,100425.53
2022-09-13T03:44:52.402Z,100426.38
2022-09-13T03:47:19.809Z,100421.84
2022-09-13T03:49:47.291Z,100427.22
2022-09-13T03:52:15.965Z,100435.41
2022-09-13T03:54:43.352Z,100433.72
2022-09-13T03:57:11.796Z,100441.56
2022-09-13T03:59:40.675Z,100432.06
2022-09-13T04:02:11.902Z,100431.41
2022-09-13T04:04:40.136Z,100423.53
2022-09-13T04:07:07.558Z,100409.47
2022-09-13T04:09:36.219Z,100414.81
2022-09-13T04:12:03.662Z,100414.66
2022-09-13T04:14:31.031Z,100413.81
2022-09-13T04:16:58.758Z,100412.13
2022-09-13T04:19:26.303Z,100407.81
2022-09-13T04:21:54.558Z,100396.28
2022-09-13T04:24:21.937Z,100398.09
2022-09-13T04:26:51.078Z,100394.41
2022-09-13T04:29:19.262Z,100387.38
2022-09-13T04:31:46.778Z,100392.75
2022-09-13T04:34:14.636Z,100397.75
2022-09-13T04:36:42.099Z,100395.09
2022-09-13T04:39:09.492Z,100389.06
2022-09-13T04:41:36.947Z,100388.41
2022-09-13T04:44:05.715Z,100383.03
2022-09-13T04:46:33.100Z,100377.34
2022-09-13T04:49:00.659Z,100374.66
2022-09-13T04:51:28.032Z,100378.38
2022-09-13T04:53:55.485Z,100372.34
2022-09-13T04:56:23.282Z,100368.00
2022-09-13T04:58:51.505Z,100370.34
2022-09-13T05:01:20.590Z,100368.66
2022-09-13T05:03:48.484Z,100361.66
2022-09-13T05:06:17.888Z,100357.13
2022-09-13T05:08:45.445Z,100351.94
2022-09-13T05:11:12.881Z,100352.28
2022-09-13T05:13:40.374Z,100350.25
2022-09-13T05:16:08.445Z,100340.75
2022-09-13T05:18:39.951Z,100345.09
2022-09-13T05:21:10.605Z,100341.25
2022-09-13T05:23:38.356Z,100342.06
2022-09-13T05:26:06.446Z,100349.94
2022-09-13T05:28:34.582Z,100347.91
2022-09-13T05:31:02.526Z,100344.25
2022-09-13T05:33:31.062Z,100343.09
2022-09-13T05:35:59.810Z,100343.09
2022-09-13T05:38:27.203Z,100337.06
2022-09-13T05:40:56.932Z,100335.56
2022-09-13T05:43:26.358Z,100325.19
2022-09-13T05:46:01.312Z,100324.53
2022-09-13T05:48:28.749Z,100323.88
2022-09-13T05:50:58.920Z,100318.84
2022-09-13T05:53:27.739Z,100320.34
2022-09-13T05:55:55.136Z,100323.19
2022-09-13T05:58:23.337Z,100320.53
2022-09-13T06:00:53.972Z,100311.16
2022-09-13T06:03:21.380Z,100312.16
2022-09-13T06:05:48.800Z,100317.69
2022-09-13T06:08:16.351Z,100319.69
2022-09-13T06:10:45.214Z,100331.22
2022-09-13T06:13:12.871Z,100334.88
2022-09-13T06:15:43.335Z,100341.91
2022-09-13T06:18:10.929Z,100352.63
2022-09-13T06:20:38.328Z,100352.63
2022-09-13T06:23:05.820Z,100346.25
2022-09-13T06:25:33.247Z,100348.91
2022-09-13T06:28:02.124Z,100349.94
2022-09-13T06:30:29.523Z,100357.81
2022-09-13T06:32:57.034Z,100356.28
2022-09-13T06:35:24.548Z,100361.97
2022-09-13T06:37:52.030Z,100369.31
2022-09-13T06:40:24.466Z,100374.66
2022-09-13T06:42:52.659Z,100367.81
2022-09-13T06:45:21.561Z,100362.63
2022-09-13T06:47:48.989Z,100360.94
2022-09-13T06:50:18.133Z,100371.63
2022-09-13T06:52:45.597Z,100371.63
2022-09-13T06:55:12.998Z,100358.44
2022-09-13T06:57:40.390Z,100362.94
2022-09-13T07:00:09.259Z,100354.28
2022-09-13T07:02:37.930Z,100356.78
2022-09-13T07:05:05.956Z,100351.44
2022-09-13T07:07:33.351Z,100346.09
2022-09-13T07:10:00.928Z,100340.91
2022-09-13T07:12:28.340Z,100336.53
2022-09-13T07:14:56.046Z,100316.16
2022-09-13T07:17:23.437Z,100314.31
2022-09-13T07:19:52.207Z,100325.00
2022-09-13T07:22:19.640Z,100325.00
2022-09-13T07:24:47.043Z,100323.16
2022-09-13T07:27:16.676Z,100322.34
2022-09-13T07:29:44.077Z,100319.84
2022-09-13T07:32:11.488Z,100319.66
2022-09-13T07:34:38.909Z,100329.53
2022-09-13T07:37:07.766Z,100328.53
2022-09-13T07:39:35.162Z,100328.88
2022-09-13T07:42:02.562Z,100320.84
2022-09-13T07:44:29.967Z,100319.16
2022-09-13T07:46:57.371Z,100311.16
2022-09-13T07:49:24.862Z,100327.03
2022-09-13T07:51:52.931Z,100317.31
2022-09-13T07:54:21.632Z,100313.81
2022-09-13T07:56:51.583Z,100305.81
2022-09-13T07:59:19.438Z,100311.16
2022-09-13T08:01:47.828Z,100308.31
2022-09-13T08:04:17.207Z,100308.47
2022-09-13T08:06:44.607Z,100305.81
2022-09-13T08:09:12.098Z,100317.44
2022-09-13T08:11:41.500Z,100314.66
2022-09-13T08:14:10.254Z,100316.50
2022-09-13T08:16:39.249Z,100308.47
2022-09-13T08:19:07.297Z,100309.59
2022-09-13T08:21:35.438Z,100298.91
2022-09-13T08:24:03.418Z,100301.41
2022-09-13T08:26:31.422Z,100298.59
2022-09-13T08:29:04.953Z,100298.59
2022-09-13T08:31:32.384Z,100298.59
2022-09-13T08:33:59.924Z,100300.59
2022-09-13T08:36:27.572Z,100306.75
2022-09-13T08:38:55.760Z,100301.41
2022-09-13T08:41:52.332Z,100305.09
2022-09-13T08:44:26.432Z,100306.09
2022-09-13T08:46:54.226Z,100304.44
2022-09-13T08:49:22.648Z,100298.91
2022-09-13T08:51:50.849Z,100311.16
2022-09-13T08:54:18.741Z,100307.78
2022-09-13T08:56:48.820Z,100309.44
2022-09-13T08:59:37.617Z,100308.59
2022-09-13T09:02:17.731Z,100303.13
2022-09-13T09:04:46.792Z,100305.63
2022-09-13T09:07:16.100Z,100301.13
2022-09-13T09:09:46.561Z,100293.75
2022-09-13T09:12:18.195Z,100296.28
2022-09-13T09:14:47.624Z,100289.09
2022-09-13T09:17:16.858Z,100282.91
2022-09-13T09:19:44.974Z,100273.72
2022-09-13T09:22:14.651Z,100280.72
2022-09-13T09:24:42.081Z,100283.56
2022-09-13T09:27:12.710Z,100287.75
2022-09-13T09:29:43.919Z,100281.59
2022-09-13T09:32:18.709Z,100289.25
2022-09-13T09:34:51.223Z,100285.75
2022-09-13T09:37:20.909Z,100290.59
2022-09-13T09:39:48.821Z,100298.31
2022-09-13T09:42:18.162Z,100301.81
2022-09-13T09:44:48.923Z,100303.66
2022-09-13T09:47:19.149Z,100293.28
2022-09-13T09:50:05.302Z,100277.06
2022-09-13T09:52:34.288Z,100284.94
2022-09-13T09:55:08.169Z,100288.44
2022-09-13T09:57:52.097Z,100281.72
2022-09-13T10:00:20.576Z,100285.06
2022-09-13T10:02:49.562Z,100277.72
2022-09-13T10:05:19.571Z,100275.72
2022-09-13T10:07:54.387Z,100278.22
2022-09-13T10:10:24.252Z,100273.03
2022-09-13T10:12:54.141Z,100261.31
2022-09-13T10:15:29.220Z,100256.81
2022-09-13T10:18:16.788Z,100254.00
2022-09-13T10:21:02.057Z,100256.28
2022-09-13T10:23:29.535Z,100265.34
2022-09-13T10:26:03.504Z,100269.00
2022-09-13T10:28:31.735Z,100262.84
2022-09-13T10:31:00.913Z,100261.16
2022-09-13T10:33:31.251Z,100262.84
2022-09-13T10:35:59.926Z,100257.00
2022-09-13T10:38:30.491Z,100253.66
2022-09-13T10:40:57.900Z,100249.78
2022-09-13T10:43:25.336Z,100243.78
2022-09-13T10:45:52.791Z,100252.47
2022-09-13T10:48:20.856Z,100252.63
2022-09-13T10:51:07.554Z,100247.13
2022-09-13T10:53:37.113Z,100239.09
2022-09-13T10:56:04.900Z,100240.94
2022-09-13T10:58:32.418Z,100234.56
2022-09-13T11:01:30.643Z,100229.22
2022-09-13T11:04:05.416Z,100232.59
2022-09-13T11:06:36.758Z,100236.25
2022-09-13T11:09:07.983Z,100243.63
2022-09-13T11:11:37.844Z,100246.47
2022-09-13T11:14:11.913Z,100232.25
2022-09-13T11:16:46.003Z,100233.25
2022-09-13T11:19:34.672Z,100228.56
2022-09-13T11:22:28.414Z,100233.25
2022-09-13T11:25:09.828Z,100248.13
2022-09-13T11:28:06.870Z,100240.59
2022-09-13T11:30:36.767Z,100240.59
2022-09-13T11:33:34.636Z,100237.25
2022-09-13T11:36:14.611Z,100238.09
2022-09-13T11:38:50.642Z,100230.25
2022-09-13T11:41:28.240Z,100234.41
2022-09-13T11:44:17.408Z,100237.06
2022-09-13T11:46:51.874Z,100238.94
2022-09-13T11:49:48.348Z,100236.91
2022-09-13T11:52:22.741Z,100247.13
2022-09-13T11:55:00.418Z,100243.44
2022-09-13T11:57:34.742Z,100237.25
2022-09-13T12:00:10.321Z,100236.41
2022-09-13T12:02:40.089Z,100234.94
2022-09-13T12:05:22.084Z,100228.56
2022-09-13T12:07:53.013Z,100228.22
2022-09-13T12:10:23.236Z,100226.53
2022-09-13T12:12:54.398Z,100235.44
2022-09-13T12:15:24.294Z,100224.56
2022-09-13T12:18:23.328Z,100222.06
2022-09-13T12:21:19.229Z,100221.03
2022-09-13T12:23:55.251Z,100224.06
2022-09-13T12:26:41.903Z,100222.88
2022-09-13T12:29:17.010Z,100224.91
2022-09-13T12:31:46.467Z,100231.56
2022-09-13T12:35:02.304Z,100226.22
2022-09-13T12:38:17.477Z,100222.22
2022-09-13T12:41:50.068Z,100230.09
2022-09-13T12:44:50.471Z,100226.38
2022-09-13T12:47:51.300Z,100233.25
2022-09-13T12:50:42.846Z,100225.38
2022-09-13T12:53:20.659Z,100225.22
2022-09-13T12:56:05.693Z,100222.06
2022-09-13T12:58:48.917Z,100218.19
2022-09-13T13:01:18.629Z,100214.19
2022-09-13T13:03:57.963Z,100210.50
2022-09-13T13:06:30.890Z,100220.19
2022-09-13T13:09:28.617Z,100212.19
2022-09-13T13:11:58.220Z,100213.88
2022-09-13T13:14:47.818Z,100208.16
2022-09-13T13:17:42.647Z,100199.47
2022-09-13T13:20:48.371Z,100194.44
2022-09-13T13:23:27.490Z,100183.75
2022-09-13T13:26:11.202Z,100180.75
2022-09-13T13:29:17.349Z,100181.75
2022-09-13T13:32:04.889Z,100187.78
2022-09-13T13:34:38.253Z,100183.06
2022-09-13T13:37:06.220Z,100199.47
2022-09-13T13:39:42.837Z,100199.47
2022-09-13T13:42:39.581Z,100191.44
2022-09-13T13:45:19.376Z,100175.38
2022-09-13T13:48:32.645Z,100179.75
2022-09-13T13:51:29.627Z,100181.75
2022-09-13T13:54:02.825Z,100185.09
2022-09-13T13:56:34.086Z,100182.41
2022-09-13T13:59:05.553Z,100181.59
2022-09-13T14:02:01.567Z,100180.56
2022-09-13T14:04:42.878Z,100186.75
2022-09-13T14:07:38.160Z,100177.72
2022-09-13T14:10:06.976Z,100175.22
2022-09-13T14:12:41.230Z,100175.72
2022-09-13T14:15:24.717Z,100168.00
2022-09-13T14:18:23.134Z,100167.31
2022-09-13T14:21:26.341Z,100171.00
2022-09-13T14:26:45.944Z,100179.56
2022-09-13T14:29:13.441Z,100166.19
2022-09-13T14:31:40.857Z,100167.19
2022-09-13T14:34:22.463Z,100178.69
2022-09-13T14:36:56.474Z,100175.03
2022-09-13T14:39:23.856Z,100170.69
2022-09-13T14:41:59.385Z,100168.66
2022-09-13T14:44:29.061Z,100166.34
2022-09-13T14:47:00.966Z,100168.00
2022-09-13T14:49:32.014Z,100169.19
2022-09-13T14:52:01.105Z,100167.00
2022-09-13T14:54:32.046Z,100162.81
2022-09-13T14:57:01.627Z,100161.81
2022-09-13T14:59:31.100Z,100164.66
2022-09-13T15:02:02.859Z,100154.97
2022-09-13T15:04:30.663Z,100156.81
2022-09-13T15:07:07.755Z,100160.50
2022-09-13T15:09:37.578Z,100153.31
2022-09-13T15:12:21.228Z,100155.66
2022-09-13T15:14:48.614Z,100150.44
2022-09-13T15:17:15.997Z,100141.72
2022-09-13T15:19:43.883Z,100149.59
2022-09-13T15:22:16.688Z,100143.91
2022-09-13T15:24:46.202Z,100136.69
2022-09-13T15:27:21.156Z,100141.06
2022-09-13T15:29:50.084Z,100139.03
2022-09-13T15:32:21.932Z,100135.06
2022-09-13T15:34:49.694Z,100140.56
2022-09-13T15:37:17.068Z,100145.75
2022-09-13T15:39:48.668Z,100135.22
2022-09-13T15:42:16.561Z,100141.41
2022-09-13T15:44:45.225Z,100140.56
2022-09-13T15:47:16.045Z,100130.88
2022-09-13T15:49:47.441Z,100132.38
2022-09-13T15:52:14.841Z,100140.88
2022-09-13T15:54:43.387Z,100137.38
2022-09-13T15:57:14.347Z,100143.72
2022-09-13T15:59:41.818Z,100145.41
2022-09-13T16:02:18.740Z,100145.59
2022-09-13T16:04:46.184Z,100127.84
2022-09-13T16:07:13.880Z,100134.88
2022-09-13T16:09:41.272Z,100133.19
2022-09-13T16:12:08.685Z,100141.22
2022-09-13T16:14:36.065Z,100130.34
2022-09-13T16:17:06.232Z,100134.88
2022-09-13T16:19:35.048Z,100130.53
2022-09-13T16:22:02.453Z,100127.69
2022-09-13T16:24:29.855Z,100124.34
2022-09-13T16:26:57.238Z,100124.50
2022-09-13T16:29:24.719Z,100116.31
2022-09-13T16:31:52.180Z,100122.00
2022-09-13T16:34:20.236Z,100113.81
2022-09-13T16:36:48.901Z,100115.97
2022-09-13T16:39:16.280Z,100114.47
2022-09-13T16:41:43.711Z,100114.13
2022-09-13T16:44:11.083Z,100118.81
2022-09-13T16:46:38.508Z,100122.31
2022-09-13T16:49:05.883Z,100120.00
2022-09-13T16:51:33.268Z,100117.16
2022-09-13T16:54:02.699Z,100117.97
2022-09-13T16:56:30.194Z,100120.81
2022-09-13T16:58:57.564Z,100122.50
2022-09-13T17:01:25.769Z,100127.84
2022-09-13T17:03:54.915Z,100126.16
2022-09-13T17:06:22.775Z,100124.19
2022-09-13T17:08:53.342Z,100122.50
2022-09-13T17:11:23.535Z,100120.47
2022-09-13T17:13:51.895Z,100113.31
2022-09-13T17:16:25.085Z,100125.16
2022-09-13T17:18:52.525Z,100122.50
2022-09-13T17:21:19.947Z,100116.66
2022-09-13T17:23:47.506Z,100125.16
2022-09-13T17:26:15.007Z,100130.19
2022-09-13T17:28:43.672Z,100122.66
2022-09-13T17:31:11.141Z,100124.50
2022-09-13T17:33:38.649Z,100127.50
2022-09-13T17:36:08.280Z,100128.00
2022-09-13T17:38:35.702Z,100128.00
2022-09-13T17:41:03.411Z,100134.50
2022-09-13T17:43:30.800Z,100127.50
2022-09-13T17:46:03.800Z,100131.00
2022-09-13T17:48:31.228Z,100127.50
2022-09-13T17:51:01.930Z,100132.03
2022-09-13T17:53:29.381Z,100136.53
2022-09-13T17:55:56.768Z,100131.34
2022-09-13T17:58:25.572Z,100132.19
2022-09-13T18:00:52.972Z,100133.19
2022-09-13T18:03:21.644Z,100139.75
2022-09-13T18:05:49.072Z,100129.03
2022-09-13T18:08:16.488Z,100137.25
2022-09-13T18:11:10.135Z,100137.25
2022-09-13T18:13:31.377Z,100139.06
2022-09-13T18:16:00.508Z,100131.88
2022-09-13T18:18:29.279Z,100139.91
2022-09-13T18:20:57.221Z,100138.06
2022-09-13T18:23:25.497Z,100135.56
2022-09-13T18:26:02.589Z,100141.72
2022-09-13T18:28:31.839Z,100144.25
2022-09-13T18:31:00.388Z,100140.09
2022-09-13T18:33:29.259Z,100135.56
2022-09-13T18:35:58.446Z,100137.56
2022-09-13T18:38:25.835Z,100138.56
2022-09-13T18:41:03.227Z,100135.91
2022-09-13T18:43:31.175Z,100136.75
2022-09-13T18:45:58.849Z,100140.25
2022-09-13T18:48:30.143Z,100139.44
2022-09-13T18:50:58.188Z,100136.94
2022-09-13T18:53:34.536Z,100143.94
2022-09-13T18:56:02.929Z,100143.09
2022-09-13T18:58:30.957Z,100143.09
2022-09-13T19:01:02.577Z,100145.78
2022-09-13T19:03:31.873Z,100146.59
2022-09-13T19:06:09.863Z,100143.94
2022-09-13T19:08:37.315Z,100141.25
2022-09-13T19:11:04.768Z,100140.44
2022-09-13T19:13:32.252Z,100139.59
2022-09-13T19:15:59.963Z,100137.75
2022-09-13T19:18:27.399Z,100147.63
2022-09-13T19:21:03.311Z,100146.59
2022-09-13T19:23:55.575Z,100138.75
2022-09-13T19:26:19.500Z,100144.09
2022-09-13T19:28:48.032Z,100150.31
2022-09-13T19:31:15.735Z,100152.97
2022-09-13T19:33:44.135Z,100152.97
2022-09-13T19:36:13.776Z,100147.63
2022-09-13T19:38:41.353Z,100150.31
2022-09-13T19:41:10.273Z,100154.78
2022-09-13T19:43:37.975Z,100156.66
2022-09-13T19:46:06.529Z,100163.00
2022-09-13T19:48:39.374Z,100157.63
2022-09-13T19:51:08.226Z,100156.66
2022-09-13T19:53:55.855Z,100160.16
2022-09-13T19:56:25.685Z,100160.16
2022-09-13T19:58:53.268Z,100156.66
2022-09-13T20:01:21.649Z,100156.81
2022-09-13T20:03:51.672Z,100150.81
2022-09-13T20:06:19.369Z,100154.97
2022-09-13T20:08:48.030Z,100149.81
2022-09-13T20:11:16.367Z,100149.81
2022-09-13T20:13:43.783Z,100157.63
2022-09-13T20:16:11.730Z,100150.63
2022-09-13T20:18:39.580Z,100153.47
2022-09-13T20:21:08.736Z,100151.28
2022-09-13T20:23:36.633Z,100156.66
2022-09-13T20:26:05.731Z,100146.94
2022-09-13T20:28:33.947Z,100149.94
2022-09-13T20:31:02.039Z,100150.13
2022-09-13T20:33:29.597Z,100157.47
2022-09-13T20:35:57.408Z,100146.13
2022-09-13T20:38:24.784Z,100149.63
2022-09-13T20:40:52.206Z,100156.00
2022-09-13T20:43:20.863Z,100153.16
2022-09-13T20:45:56.249Z,100152.28
2022-09-13T20:48:24.648Z,100138.25
2022-09-13T20:50:58.341Z,100146.13
2022-09-13T20:53:25.719Z,100149.63
2022-09-13T20:55:53.330Z,100142.28
2022-09-13T20:58:22.062Z,100141.59
2022-09-13T21:00:49.592Z,100145.13
2022-09-13T21:03:17.031Z,100143.28
2022-09-13T21:05:44.412Z,100134.41
2022-09-13T21:08:32.732Z,100133.56
2022-09-13T21:11:02.629Z,100131.75
2022-09-13T21:13:31.955Z,100136.94
2022-09-13T21:16:03.155Z,100134.25
2022-09-13T21:18:30.789Z,100142.28
2022-09-13T21:20:58.363Z,100144.59
2022-09-13T21:23:25.740Z,100142.09
2022-09-13T21:25:53.144Z,100147.63
2022-09-13T21:28:20.551Z,100151.94
2022-09-13T21:30:57.906Z,100142.28
2022-09-13T21:33:25.374Z,100144.94
2022-09-13T21:35:53.179Z,100140.44
2022-09-13T21:38:20.576Z,100150.97
2022-09-13T21:40:55.167Z,100160.63
2022-09-13T21:43:22.661Z,100156.97
2022-09-13T21:45:50.127Z,100163.13
2022-09-13T21:48:19.586Z,100164.00
2022-09-13T21:50:48.837Z,100173.16
2022-09-13T21:53:16.225Z,100180.38
2022-09-13T21:55:43.611Z,100176.00
2022-09-13T21:58:11.580Z,100170.00
2022-09-13T22:00:39.779Z,100178.84
2022-09-13T22:03:09.036Z,100178.03
2022-09-13T22:05:37.712Z,100176.34
2022-09-13T22:08:05.104Z,100177.19
2022-09-13T22:10:32.505Z,100179.50
2022-09-13T22:13:00.930Z,100178.34
2022-09-13T22:15:28.332Z,100181.03
2022-09-13T22:17:55.709Z,100174.66
2022-09-13T22:20:23.113Z,100174.00
2022-09-13T22:22:51.767Z,100168.28
2022-09-13T22:25:19.450Z,100167.13
2022-09-13T22:27:46.832Z,100165.63
2022-09-13T22:30:14.852Z,100173.00
2022-09-13T22:32:42.228Z,100165.31
2022-09-13T22:35:10.302Z,100167.31
2022-09-13T22:37:37.836Z,100168.16
2022-09-13T22:40:07.540Z,100173.16
2022-09-13T22:42:35.008Z,100178.03
2022-09-13T22:45:02.442Z,100182.34
2022-09-13T22:47:29.819Z,100179.69
2022-09-13T22:49:57.230Z,100177.31
2022-09-13T22:52:24.662Z,100180.53
2022-09-13T22:54:52.151Z,100180.00
2022-09-13T22:57:20.813Z,100174.84
2022-09-13T22:59:48.198Z,100164.31
2022-09-13T23:02:15.581Z,100168.63
2022-09-13T23:04:43.096Z,100175.66
2022-09-13T23:07:10.463Z,100174.00
2022-09-13T23:09:37.839Z,100172.34
2022-09-13T23:12:05.556Z,100169.50
2022-09-13T23:14:34.220Z,100179.16
2022-09-13T23:17:01.676Z,100181.19
2022-09-13T23:19:29.596Z,100179.34
2022-09-13T23:21:57.073Z,100180.38
2022-09-13T23:24:24.667Z,100179.88
2022-09-13T23:26:52.046Z,100181.34
2022-09-13T23:29:20.043Z,100178.84
2022-09-13T23:31:49.015Z,100178.84
2022-09-13T23:34:17.645Z,100183.03
2022-09-13T23:36:45.442Z,100185.22
2022-09-13T23:39:16.236Z,100178.19
2022-09-13T23:41:43.759Z,100174.88
2022-09-13T23:44:11.143Z,100179.56
2022-09-13T23:46:38.594Z,100177.88
2022-09-13T23:49:07.253Z,100177.06
2022-09-13T23:51:34.642Z,100173.34
2022-09-13T23:54:02.201Z,100172.69
2022-09-13T23:56:31.156Z,100166.69
2022-09-13T23:58:59.141Z,100172.53
